Bury, United Kingdom
Current Conditions -  °F | °C
As of 8:20 AM on Tuesday 21 Oct 2014 (Local Time) from EGCC Reporting Station
Rain Showers Rain Showers  
Wind Chill: 10°   Ceiling: 3300
Heat Index: 10°   Visibility: 6mi
Dew Point:   Wind: 18mph
Humidity: 82%   Direction: 270°W
Pressure: 29.44"   Gusts: NA
Location:  53.59°N, 2.3°W
Report Text: EGCC 210720Z 27016KT 9999 VCSH FEW023CB BKN033 10/07 Q0997 RERA TEMPO SHRA
Loading
Personal Weather Stations






























Interactive Weather Map
Tropical Storm Tracking
New forecast layout! Learn more

10-Day Weather Forecast

Advertisements
Track Severe Weather on mobile